createdAt,value
2023-03-20T06:32:54.254Z,17.57
2023-03-20T06:35:22.507Z,16.77
2023-03-20T06:37:50.722Z,20.40
2023-03-20T06:40:19.024Z,22.73
2023-03-20T06:42:47.147Z,16.50
2023-03-20T06:45:15.918Z,17.90
2023-03-20T06:47:44.071Z,17.93
2023-03-20T06:50:15.060Z,16.60
2023-03-20T06:52:43.439Z,19.50
2023-03-20T06:55:11.717Z,20.33
2023-03-20T06:57:40.069Z,23.77
2023-03-20T07:00:10.276Z,17.00
2023-03-20T07:02:38.890Z,19.03
2023-03-20T07:05:08.230Z,13.13
2023-03-20T07:07:38.341Z,16.77
2023-03-20T07:10:07.337Z,20.17
2023-03-20T07:12:35.483Z,15.57
2023-03-20T07:15:04.454Z,16.50
2023-03-20T07:17:32.674Z,19.87
2023-03-20T07:20:01.549Z,13.23
2023-03-20T07:22:31.432Z,16.23
2023-03-20T07:25:01.505Z,19.20
2023-03-20T07:27:29.631Z,15.67
2023-03-20T07:29:57.776Z,17.13
2023-03-20T07:32:26.004Z,20.33
2023-03-20T07:34:54.173Z,15.77
2023-03-20T07:37:22.407Z,20.17
2023-03-20T07:39:50.625Z,18.13
2023-03-20T07:42:20.207Z,20.33
2023-03-20T07:44:48.302Z,19.33
2023-03-20T07:47:16.397Z,14.73
2023-03-20T07:49:44.518Z,18.57
2023-03-20T07:52:12.636Z,25.17
2023-03-20T07:54:40.865Z,19.40
2023-03-20T07:57:09.002Z,15.17
2023-03-20T07:59:38.712Z,19.90
2023-03-20T08:02:06.877Z,16.67
2023-03-20T08:04:35.229Z,19.63
2023-03-20T08:07:03.489Z,23.43
2023-03-20T08:09:31.905Z,15.53
2023-03-20T08:12:00.117Z,18.17
2023-03-20T08:14:28.387Z,20.20
2023-03-20T08:17:12.977Z,21.70
2023-03-20T08:19:42.870Z,19.97
2023-03-20T08:22:11.120Z,18.03
2023-03-20T08:24:39.276Z,19.33
2023-03-20T08:27:07.865Z,16.50
2023-03-20T08:29:36.418Z,15.27
2023-03-20T08:32:06.435Z,19.83
2023-03-20T08:34:35.068Z,14.57
2023-03-20T08:37:05.135Z,14.87
2023-03-20T08:39:33.552Z,17.10
2023-03-20T08:42:01.856Z,14.07
2023-03-20T08:44:30.298Z,22.73
2023-03-20T08:46:58.957Z,19.63
2023-03-20T08:49:29.066Z,16.67
2023-03-20T08:51:57.254Z,17.00
2023-03-20T08:54:25.461Z,16.67
2023-03-20T08:56:53.868Z,21.37
2023-03-20T08:59:22.370Z,18.10
2023-03-20T09:01:50.749Z,17.40
2023-03-20T09:04:21.212Z,20.47
2023-03-20T09:06:51.689Z,17.13
2023-03-20T09:09:21.741Z,18.07
2023-03-20T09:11:50.046Z,18.27
2023-03-20T09:14:18.156Z,21.37
2023-03-20T09:16:47.263Z,19.37
2023-03-20T09:19:15.465Z,19.90
2023-03-20T09:21:43.752Z,16.13
2023-03-20T09:24:13.358Z,15.30
2023-03-20T09:26:41.614Z,19.90
2023-03-20T09:29:09.725Z,18.23
2023-03-20T09:31:38.225Z,19.93
2023-03-20T09:34:06.476Z,24.60
2023-03-20T09:36:34.814Z,20.13
2023-03-20T09:39:03.444Z,21.67
2023-03-20T09:41:52.814Z,19.13
2023-03-20T09:44:40.140Z,19.07
2023-03-20T09:47:20.578Z,18.63
2023-03-20T09:50:00.258Z,23.03
2023-03-20T09:52:33.119Z,19.17
2023-03-20T09:55:05.281Z,21.53
2023-03-20T09:57:40.231Z,16.53
2023-03-20T10:00:13.998Z,19.23
2023-03-20T10:02:49.369Z,19.03
2023-03-20T10:05:24.445Z,25.00
2023-03-20T10:07:54.125Z,21.90
2023-03-20T10:10:28.887Z,18.13
2023-03-20T10:13:14.693Z,22.60
2023-03-20T10:15:53.655Z,22.53
2023-03-20T10:18:26.668Z,25.47
2023-03-20T10:21:00.596Z,25.43
2023-03-20T10:23:36.454Z,23.57
2023-03-20T10:26:08.760Z,16.73
2023-03-20T10:28:44.362Z,19.93
2023-03-20T10:31:28.796Z,15.13
2023-03-20T10:34:09.133Z,23.03
2023-03-20T10:36:50.223Z,27.93
2023-03-20T10:39:27.165Z,24.03
2023-03-20T10:41:57.861Z,28.20
2023-03-20T10:44:33.836Z,27.07
2023-03-20T10:47:05.057Z,21.10
2023-03-20T10:49:41.096Z,20.53
2023-03-20T10:52:16.023Z,18.73
2023-03-20T10:54:48.082Z,21.97
2023-03-20T10:57:21.935Z,23.67
2023-03-20T10:59:52.258Z,18.30
2023-03-20T11:02:23.375Z,17.47
2023-03-20T11:04:52.151Z,24.37
2023-03-20T11:07:26.832Z,22.07
2023-03-20T11:10:12.346Z,21.13
2023-03-20T11:12:42.251Z,21.47
2023-03-20T11:15:27.815Z,26.03
2023-03-20T11:17:57.993Z,22.10
2023-03-20T11:20:27.625Z,20.67
2023-03-20T11:23:02.093Z,25.47
2023-03-20T11:25:33.584Z,22.67
2023-03-20T11:28:26.815Z,23.30
2023-03-20T11:31:05.185Z,20.20
2023-03-20T11:33:37.695Z,19.40
2023-03-20T11:36:14.117Z,18.17
2023-03-20T11:38:45.996Z,23.27
2023-03-20T11:41:20.412Z,25.07
2023-03-20T11:43:48.556Z,25.27
2023-03-20T11:46:18.174Z,26.63
2023-03-20T11:48:47.822Z,20.60
2023-03-20T11:51:18.704Z,26.37
2023-03-20T11:54:03.419Z,18.60
2023-03-20T11:56:33.842Z,24.57
2023-03-20T11:59:05.954Z,21.73
2023-03-20T12:01:46.826Z,25.40
2023-03-20T12:04:18.816Z,17.63
2023-03-20T12:06:55.358Z,25.80
2023-03-20T12:09:41.380Z,20.10
2023-03-20T12:12:17.657Z,21.30
2023-03-20T12:14:54.760Z,20.90
2023-03-20T12:17:43.898Z,22.63
2023-03-20T12:20:26.553Z,19.63
2023-03-20T12:23:02.618Z,25.67
2023-03-20T12:25:38.220Z,18.10
2023-03-20T12:28:12.384Z,24.23
2023-03-20T12:30:54.838Z,20.70
2023-03-20T12:33:33.863Z,15.97
2023-03-20T12:36:04.255Z,15.10
2023-03-20T12:38:34.297Z,17.50
2023-03-20T12:41:12.253Z,17.57
2023-03-20T12:43:55.498Z,11.87
2023-03-20T12:46:33.120Z,12.77
2023-03-20T12:49:14.094Z,17.27
2023-03-20T12:51:54.760Z,14.20
2023-03-20T12:54:37.667Z,18.63
2023-03-20T12:57:17.476Z,18.33
2023-03-20T12:59:59.825Z,19.13
2023-03-20T13:02:40.911Z,18.93
2023-03-20T13:05:21.827Z,13.77
2023-03-20T13:08:10.853Z,13.70
2023-03-20T13:10:41.753Z,19.07
2023-03-20T13:13:19.745Z,19.97
2023-03-20T13:15:58.960Z,16.83
2023-03-20T13:18:40.576Z,25.43
2023-03-20T13:21:15.300Z,19.53
2023-03-20T13:23:50.355Z,16.33
2023-03-20T13:26:30.014Z,14.53
2023-03-20T13:29:04.237Z,12.70
2023-03-20T13:31:47.092Z,12.27
2023-03-20T13:34:28.494Z,17.10
2023-03-20T13:37:22.248Z,14.53
2023-03-20T13:40:02.054Z,15.60
2023-03-20T13:42:35.854Z,17.13
2023-03-20T13:45:08.400Z,16.13
2023-03-20T13:47:38.617Z,12.40
2023-03-20T13:50:33.550Z,18.30
2023-03-20T13:53:08.002Z,12.27
2023-03-20T13:55:44.552Z,10.07
2023-03-20T13:58:28.812Z,14.37
2023-03-20T14:01:03.656Z,13.73
2023-03-20T14:03:34.813Z,9.57
2023-03-20T14:06:16.739Z,14.67
2023-03-20T14:08:50.160Z,7.53
2023-03-20T14:11:35.189Z,11.73
2023-03-20T14:14:09.831Z,10.03
2023-03-20T14:16:38.104Z,9.60
2023-03-20T14:19:13.242Z,9.40
2023-03-20T14:21:46.405Z,6.67
2023-03-20T14:24:19.628Z,15.93
2023-03-20T14:26:51.148Z,9.37
2023-03-20T14:29:36.113Z,11.17
2023-03-20T14:32:07.526Z,11.23
2023-03-20T14:34:47.802Z,13.33
2023-03-20T14:37:36.458Z,12.97
2023-03-20T14:40:17.040Z,11.57
2023-03-20T14:42:54.020Z,11.47
2023-03-20T14:45:33.385Z,9.03
2023-03-20T14:48:18.340Z,13.97
2023-03-20T14:51:03.163Z,13.43
2023-03-20T14:53:33.396Z,10.43
2023-03-20T14:56:09.290Z,10.77
2023-03-20T14:58:57.950Z,13.43
2023-03-20T15:01:42.499Z,13.90
2023-03-20T15:04:20.364Z,16.53
2023-03-20T15:06:52.966Z,14.70
2023-03-20T15:09:22.974Z,10.57
2023-03-20T15:11:53.534Z,11.00
2023-03-20T15:14:26.185Z,13.40
2023-03-20T15:16:59.771Z,12.37
2023-03-20T15:19:28.253Z,11.57
2023-03-20T15:21:56.947Z,18.20
2023-03-20T15:24:26.268Z,16.33
2023-03-20T15:26:59.838Z,9.10
2023-03-20T15:29:29.118Z,13.23
2023-03-20T15:32:13.358Z,16.20
2023-03-20T15:34:44.114Z,11.57
2023-03-20T15:37:16.259Z,11.57
2023-03-20T15:39:46.166Z,12.93
2023-03-20T15:42:17.457Z,12.07
2023-03-20T15:44:48.392Z,12.53
2023-03-20T15:47:20.878Z,13.27
2023-03-20T15:49:53.149Z,11.77
2023-03-20T15:52:28.814Z,18.27
2023-03-20T15:54:58.279Z,13.17
2023-03-20T15:57:35.337Z,9.53
2023-03-20T16:00:06.406Z,11.57
2023-03-20T16:02:36.117Z,10.73
2023-03-20T16:05:05.027Z,12.50
2023-03-20T16:07:34.126Z,12.40
2023-03-20T16:10:02.395Z,10.03
2023-03-20T16:12:32.956Z,10.57
2023-03-20T16:15:01.355Z,10.63
2023-03-20T16:17:30.027Z,8.73
2023-03-20T16:19:58.169Z,12.60
2023-03-20T16:22:29.032Z,7.63
2023-03-20T16:25:00.070Z,8.70
2023-03-20T16:27:33.775Z,8.13
2023-03-20T16:30:07.643Z,8.33
2023-03-20T16:32:38.883Z,10.90
2023-03-20T16:35:14.839Z,11.00
2023-03-20T16:37:48.586Z,9.50
2023-03-20T16:40:24.812Z,7.40
2023-03-20T16:42:57.324Z,10.83
2023-03-20T16:45:30.150Z,10.43
2023-03-20T16:48:26.933Z,7.47
2023-03-20T16:51:04.293Z,8.03
2023-03-20T16:53:38.904Z,10.17
2023-03-20T16:56:13.205Z,11.20
